createdAt,value
2022-10-06T00:01:18.080Z,3.90
2022-10-06T00:03:48.282Z,3.97
2022-10-06T00:06:18.303Z,4.15
2022-10-06T00:08:47.637Z,3.85
2022-10-06T00:11:17.493Z,4.40
2022-10-06T00:13:45.887Z,4.53
2022-10-06T00:16:17.574Z,4.60
2022-10-06T00:18:47.734Z,4.35
2022-10-06T00:21:16.650Z,4.40
2022-10-06T00:23:45.193Z,4.13
2022-10-06T00:26:17.097Z,4.40
2022-10-06T00:28:47.347Z,5.43
2022-10-06T00:31:16.205Z,5.28
2022-10-06T00:33:44.458Z,5.50
2022-10-06T00:36:14.023Z,5.35
2022-10-06T00:38:42.199Z,5.05
2022-10-06T00:41:13.612Z,5.05
2022-10-06T00:43:48.965Z,5.50
2022-10-06T00:46:23.385Z,4.80
2022-10-06T00:48:56.851Z,5.95
2022-10-06T00:51:28.265Z,5.03
2022-10-06T00:53:58.041Z,6.47
2022-10-06T00:56:26.944Z,6.60
2022-10-06T00:58:55.145Z,6.57
2022-10-06T01:01:23.355Z,5.72
2022-10-06T01:03:56.503Z,5.68
2022-10-06T01:06:26.086Z,5.70
2022-10-06T01:08:54.584Z,6.13
2022-10-06T01:11:22.887Z,6.70
2022-10-06T01:13:51.137Z,6.72
2022-10-06T01:16:23.281Z,6.53
2022-10-06T01:18:53.069Z,6.55
2022-10-06T01:21:28.317Z,5.60
2022-10-06T01:23:58.482Z,6.07
2022-10-06T01:26:28.562Z,6.43
2022-10-06T01:28:57.659Z,6.03
2022-10-06T01:31:26.704Z,6.35
2022-10-06T01:33:55.632Z,5.97
2022-10-06T01:36:23.820Z,6.90
2022-10-06T01:38:52.012Z,6.82
2022-10-06T01:41:22.567Z,6.45
2022-10-06T01:43:50.929Z,6.22
2022-10-06T01:46:19.187Z,6.60
2022-10-06T01:48:47.440Z,6.72
2022-10-06T01:51:17.058Z,6.95
2022-10-06T01:53:45.592Z,6.88
2022-10-06T01:56:13.954Z,6.85
2022-10-06T01:58:43.534Z,6.82
2022-10-06T02:01:12.028Z,6.53
2022-10-06T02:03:41.547Z,6.90
2022-10-06T02:06:10.872Z,6.68
2022-10-06T02:08:39.409Z,6.75
2022-10-06T02:11:09.817Z,7.40
2022-10-06T02:13:38.540Z,9.27
2022-10-06T02:16:10.295Z,9.07
2022-10-06T02:18:38.590Z,9.38
2022-10-06T02:21:07.459Z,8.13
2022-10-06T02:23:35.635Z,8.18
2022-10-06T02:26:05.675Z,7.82
2022-10-06T02:28:34.760Z,7.80
2022-10-06T02:31:03.699Z,8.40
2022-10-06T02:33:33.524Z,8.73
2022-10-06T02:36:01.781Z,8.45
2022-10-06T02:38:32.448Z,8.20
2022-10-06T02:41:01.634Z,7.45
2022-10-06T02:43:31.672Z,7.85
2022-10-06T02:46:01.358Z,7.40
2022-10-06T02:48:30.718Z,7.55
2022-10-06T02:51:02.924Z,7.90
2022-10-06T02:53:31.154Z,7.47
2022-10-06T02:56:00.693Z,6.80
2022-10-06T02:58:31.278Z,6.53
2022-10-06T03:01:03.843Z,6.63
2022-10-06T03:03:32.347Z,7.40
2022-10-06T03:06:03.162Z,7.57
2022-10-06T03:08:31.688Z,7.40
2022-10-06T03:11:04.290Z,7.90
2022-10-06T03:13:32.546Z,8.43
2022-10-06T03:16:00.916Z,7.80
2022-10-06T03:18:30.431Z,7.88
2022-10-06T03:21:02.782Z,7.55
2022-10-06T03:23:31.399Z,6.82
2022-10-06T03:25:59.931Z,6.93
2022-10-06T03:28:28.666Z,6.43
2022-10-06T03:31:02.740Z,6.20
2022-10-06T03:33:31.638Z,6.85
2022-10-06T03:36:02.171Z,6.85
2022-10-06T03:38:32.827Z,7.70
2022-10-06T03:41:05.337Z,7.43
2022-10-06T03:43:33.622Z,7.63
2022-10-06T03:46:02.635Z,7.55
2022-10-06T03:48:31.926Z,7.55
2022-10-06T03:51:04.071Z,7.10
2022-10-06T03:53:33.308Z,7.43
2022-10-06T03:56:03.251Z,7.30
2022-10-06T03:58:33.191Z,7.20
2022-10-06T04:01:03.489Z,7.95
2022-10-06T04:03:32.030Z,8.80
2022-10-06T04:06:03.162Z,8.77
2022-10-06T04:08:32.845Z,8.38
2022-10-06T04:11:07.373Z,8.73
2022-10-06T04:13:35.720Z,8.20
2022-10-06T04:16:15.013Z,8.70
2022-10-06T04:18:44.316Z,8.05
2022-10-06T04:21:14.865Z,8.73
2022-10-06T04:23:43.550Z,8.63
2022-10-06T04:26:14.053Z,8.02
2022-10-06T04:28:44.268Z,7.88
2022-10-06T04:31:16.320Z,8.32
2022-10-06T04:33:45.820Z,7.78
2022-10-06T04:36:17.325Z,7.63
2022-10-06T04:38:45.717Z,7.97
2022-10-06T04:41:15.484Z,7.38
2022-10-06T04:43:43.964Z,7.35
2022-10-06T04:46:37.528Z,6.95
2022-10-06T04:49:00.827Z,7.70
2022-10-06T04:51:30.469Z,7.43
2022-10-06T04:53:58.677Z,7.95
2022-10-06T04:56:29.478Z,8.13
2022-10-06T04:58:59.031Z,9.40
2022-10-06T05:01:29.181Z,9.20
2022-10-06T05:03:59.390Z,9.55
2022-10-06T05:06:30.377Z,9.18
2022-10-06T05:09:00.468Z,9.77
2022-10-06T05:11:29.137Z,9.52
2022-10-06T05:13:58.979Z,9.63
2022-10-06T05:16:29.391Z,9.57
2022-10-06T05:18:57.920Z,9.55
2022-10-06T05:21:28.538Z,9.52
2022-10-06T05:23:58.561Z,9.82
2022-10-06T05:26:28.681Z,9.90
2022-10-06T05:28:57.408Z,9.43
2022-10-06T05:31:28.009Z,10.63
2022-10-06T05:33:57.275Z,9.95
2022-10-06T05:36:27.983Z,10.15
2022-10-06T05:38:58.224Z,10.35
2022-10-06T05:41:28.795Z,9.93
2022-10-06T05:43:58.289Z,10.82
2022-10-06T05:46:29.154Z,10.70
2022-10-06T05:48:59.075Z,10.10
2022-10-06T05:51:30.900Z,10.43
2022-10-06T05:54:01.513Z,10.07
2022-10-06T05:56:31.218Z,9.95
2022-10-06T05:59:00.640Z,10.82
2022-10-06T06:01:30.370Z,11.20
2022-10-06T06:04:00.514Z,11.15
2022-10-06T06:06:30.766Z,11.02
2022-10-06T06:09:02.548Z,10.40
2022-10-06T06:11:32.779Z,10.07
2022-10-06T06:14:02.699Z,9.80
2022-10-06T06:16:31.210Z,10.18
2022-10-06T06:18:59.968Z,9.80
2022-10-06T06:21:28.768Z,9.80
2022-10-06T06:23:57.260Z,9.23
2022-10-06T06:26:29.102Z,9.43
2022-10-06T06:29:04.034Z,9.43
2022-10-06T06:31:33.829Z,9.43
2022-10-06T06:34:04.730Z,9.60
2022-10-06T06:36:35.869Z,8.27
2022-10-06T06:39:06.020Z,7.90
2022-10-06T06:41:38.287Z,7.13
2022-10-06T06:44:06.857Z,7.50
2022-10-06T06:49:09.767Z,6.97
2022-10-06T06:51:40.409Z,7.68
2022-10-06T06:54:09.604Z,7.20
2022-10-06T06:56:40.173Z,8.13
2022-10-06T06:59:10.575Z,7.82
2022-10-06T07:01:39.559Z,8.55
2022-10-06T07:04:07.949Z,7.63
2022-10-06T07:06:40.077Z,6.82
2022-10-06T07:09:09.151Z,6.45
2022-10-06T07:11:40.280Z,6.07
2022-10-06T07:14:11.447Z,5.80
2022-10-06T07:16:57.111Z,6.10
2022-10-06T07:19:44.889Z,6.50
2022-10-06T07:22:33.733Z,7.03
2022-10-06T07:25:11.717Z,5.97
2022-10-06T07:27:43.592Z,6.70
2022-10-06T07:30:15.104Z,6.28
2022-10-06T07:32:43.514Z,5.53
2022-10-06T07:35:11.714Z,6.43
2022-10-06T07:37:40.700Z,5.78
2022-10-06T07:40:10.375Z,5.63
2022-10-06T07:42:48.985Z,4.97
2022-10-06T07:45:38.108Z,6.43
2022-10-06T07:48:07.285Z,6.90
2022-10-06T07:50:37.044Z,6.75
2022-10-06T07:53:08.792Z,6.18
2022-10-06T07:55:40.040Z,6.10
2022-10-06T07:58:12.785Z,6.32
2022-10-06T08:00:42.845Z,6.15
2022-10-06T08:03:12.415Z,6.07
2022-10-06T08:05:40.620Z,6.18
2022-10-06T08:08:08.765Z,5.90
2022-10-06T08:10:36.953Z,6.38
2022-10-06T08:13:06.759Z,6.35
2022-10-06T08:15:35.138Z,6.28
2022-10-06T08:18:16.363Z,6.50
2022-10-06T08:20:45.904Z,6.75
2022-10-06T08:23:14.410Z,6.45
2022-10-06T08:25:43.371Z,5.80
2022-10-06T08:28:11.690Z,5.40
2022-10-06T08:30:40.224Z,4.88
2022-10-06T08:33:09.809Z,5.50
2022-10-06T08:35:39.465Z,5.20
2022-10-06T08:38:07.896Z,5.43
2022-10-06T08:40:36.677Z,5.18
2022-10-06T08:43:05.010Z,5.78
2022-10-06T08:45:39.295Z,5.15
2022-10-06T08:48:13.968Z,5.32
2022-10-06T08:50:52.093Z,5.10
2022-10-06T08:53:28.257Z,5.00
2022-10-06T08:56:05.036Z,5.00
2022-10-06T08:58:42.845Z,5.05
2022-10-06T09:01:16.322Z,4.70
2022-10-06T09:03:51.557Z,4.20
2022-10-06T09:06:32.142Z,4.07
2022-10-06T09:09:04.705Z,4.35
2022-10-06T09:11:53.475Z,4.07
2022-10-06T09:14:24.597Z,3.78
2022-10-06T09:17:00.798Z,4.28
2022-10-06T09:19:44.489Z,4.43
2022-10-06T09:22:19.264Z,4.40
2022-10-06T09:24:50.432Z,4.10
2022-10-06T09:27:22.165Z,4.55
2022-10-06T09:29:51.660Z,4.00
2022-10-06T09:32:23.110Z,4.00
2022-10-06T09:34:55.405Z,4.05
2022-10-06T09:37:24.366Z,4.03
2022-10-06T09:39:54.006Z,4.03
2022-10-06T09:42:25.198Z,4.03
2022-10-06T09:45:05.857Z,4.10
2022-10-06T09:47:45.140Z,3.90
2022-10-06T09:50:22.202Z,3.70
2022-10-06T09:53:13.929Z,3.75
2022-10-06T09:55:46.683Z,3.63
2022-10-06T09:58:22.503Z,3.53
2022-10-06T10:00:55.303Z,3.42
2022-10-06T10:03:27.201Z,3.50
2022-10-06T10:05:56.977Z,3.08
2022-10-06T10:08:27.605Z,3.55
2022-10-06T10:11:37.068Z,3.40
2022-10-06T10:14:05.267Z,3.08
2022-10-06T10:16:36.991Z,2.95
2022-10-06T10:19:07.220Z,3.45
2022-10-06T10:21:37.206Z,3.08
2022-10-06T10:24:15.378Z,3.22
2022-10-06T10:26:53.766Z,3.40
2022-10-06T10:29:49.529Z,3.13
2022-10-06T10:32:21.786Z,3.00
2022-10-06T10:35:02.869Z,3.13
2022-10-06T10:37:39.801Z,3.72
2022-10-06T10:40:16.196Z,3.50
2022-10-06T10:42:48.514Z,3.33
2022-10-06T10:45:23.259Z,3.78
2022-10-06T10:47:51.519Z,3.30
2022-10-06T10:50:27.565Z,3.20
2022-10-06T10:53:00.935Z,3.47
2022-10-06T10:55:32.092Z,3.30
2022-10-06T10:58:05.606Z,3.25
2022-10-06T11:00:38.400Z,3.60
2022-10-06T11:03:06.755Z,3.42
2022-10-06T11:05:55.171Z,3.65
2022-10-06T11:08:30.890Z,3.88
2022-10-06T11:11:01.667Z,3.83
2022-10-06T11:13:36.681Z,4.25
2022-10-06T11:16:25.724Z,3.80
2022-10-06T11:19:07.705Z,3.40
2022-10-06T11:21:41.479Z,3.90
2022-10-06T11:24:18.444Z,3.72
2022-10-06T11:27:12.341Z,3.72
2022-10-06T11:29:50.011Z,3.80
2022-10-06T11:32:27.113Z,4.47
2022-10-06T11:34:56.020Z,4.30
2022-10-06T11:37:37.160Z,4.32
2022-10-06T11:40:29.353Z,4.45
2022-10-06T11:43:05.293Z,4.03
2022-10-06T11:45:41.933Z,4.30
2022-10-06T11:48:23.452Z,4.28
2022-10-06T11:50:55.310Z,4.20
2022-10-06T11:53:40.845Z,3.80
2022-10-06T11:56:38.523Z,4.43
2022-10-06T11:59:15.265Z,4.35
2022-10-06T12:01:52.940Z,4.18
2022-10-06T12:04:24.524Z,4.35
2022-10-06T12:07:03.586Z,4.60
2022-10-06T12:09:52.706Z,4.10
2022-10-06T12:13:06.135Z,3.67
2022-10-06T12:19:16.844Z,4.47
2022-10-06T12:21:52.895Z,3.80
2022-10-06T12:24:31.994Z,3.50
2022-10-06T12:27:32.682Z,3.45
2022-10-06T12:30:06.949Z,3.70
2022-10-06T12:32:47.685Z,3.65
2022-10-06T12:35:32.986Z,3.40
2022-10-06T12:38:04.954Z,3.20
2022-10-06T12:40:51.261Z,3.03
2022-10-06T12:43:45.631Z,3.25
2022-10-06T12:46:22.843Z,3.38
2022-10-06T12:49:12.356Z,3.40
2022-10-06T12:51:42.513Z,3.70
2022-10-06T12:54:20.392Z,3.58
2022-10-06T12:56:58.839Z,3.05
2022-10-06T12:59:30.127Z,3.20
2022-10-06T13:02:02.885Z,3.47
2022-10-06T13:04:35.679Z,3.45
2022-10-06T13:07:10.905Z,3.70
2022-10-06T13:09:39.137Z,3.30
2022-10-06T13:12:28.670Z,3.65
2022-10-06T13:15:23.435Z,3.40
2022-10-06T13:17:55.405Z,3.55
2022-10-06T13:20:37.531Z,3.40
2022-10-06T13:23:19.542Z,3.60
2022-10-06T13:25:50.650Z,3.33
2022-10-06T13:28:31.638Z,3.95
2022-10-06T13:33:40.734Z,3.70
2022-10-06T13:36:10.917Z,3.53
2022-10-06T13:38:39.884Z,3.45
2022-10-06T13:41:18.890Z,3.40
2022-10-06T13:43:51.087Z,3.95
2022-10-06T13:46:21.843Z,3.33
2022-10-06T13:48:54.532Z,3.55
2022-10-06T13:51:25.763Z,3.47
2022-10-06T13:53:54.564Z,3.70
2022-10-06T13:59:34.233Z,3.60
2022-10-06T14:02:22.048Z,3.78
2022-10-06T14:05:23.300Z,3.50
2022-10-06T14:07:52.637Z,3.40
2022-10-06T14:10:24.005Z,3.67
2022-10-06T14:12:52.233Z,3.47
2022-10-06T14:15:23.740Z,3.75
2022-10-06T14:17:55.872Z,3.78
2022-10-06T14:20:53.399Z,3.35
2022-10-06T14:23:43.946Z,3.22
2022-10-06T14:26:14.271Z,3.65
2022-10-06T14:28:47.804Z,3.70
2022-10-06T14:31:16.269Z,3.55
2022-10-06T14:33:44.595Z,3.28
2022-10-06T14:36:19.185Z,3.58
2022-10-06T14:38:51.674Z,3.72
2022-10-06T14:41:24.640Z,3.50
2022-10-06T14:43:54.600Z,3.75
2022-10-06T14:46:23.247Z,3.80
2022-10-06T14:48:51.931Z,3.65
2022-10-06T14:51:24.031Z,3.50
2022-10-06T14:53:54.432Z,3.50
2022-10-06T14:56:23.941Z,3.50
2022-10-06T14:58:52.985Z,3.60
2022-10-06T15:01:24.747Z,3.80
2022-10-06T15:03:53.237Z,3.50
2022-10-06T15:06:40.577Z,3.55
2022-10-06T15:09:09.331Z,3.78
2022-10-06T15:11:38.603Z,3.45
2022-10-06T15:14:08.730Z,4.10
2022-10-06T15:16:40.684Z,4.03
2022-10-06T15:19:11.003Z,3.60
2022-10-06T15:21:41.065Z,3.75
2022-10-06T15:24:13.036Z,3.75
2022-10-06T15:26:58.837Z,3.80
2022-10-06T15:29:27.157Z,3.55
2022-10-06T15:31:55.704Z,3.78
2022-10-06T15:34:26.279Z,3.70
2022-10-06T15:36:56.907Z,3.88
2022-10-06T15:39:26.963Z,3.70
2022-10-06T15:41:55.564Z,3.65
2022-10-06T15:44:24.047Z,3.55
2022-10-06T15:46:53.827Z,3.88
2022-10-06T15:49:23.115Z,3.70
2022-10-06T15:51:53.746Z,3.58
2022-10-06T15:54:24.701Z,3.90
2022-10-06T15:56:54.623Z,3.95
2022-10-06T15:59:24.161Z,4.03
2022-10-06T16:01:55.875Z,3.75
2022-10-06T16:04:30.901Z,4.10
2022-10-06T16:06:59.220Z,4.18
2022-10-06T16:09:30.719Z,3.80
2022-10-06T16:12:00.345Z,3.88
2022-10-06T16:14:28.504Z,3.90
2022-10-06T16:17:00.950Z,4.15
2022-10-06T16:19:30.339Z,3.97
2022-10-06T16:21:59.364Z,3.53
2022-10-06T16:24:29.205Z,3.95
2022-10-06T16:26:58.087Z,4.00
2022-10-06T16:29:26.568Z,3.92
2022-10-06T16:31:54.853Z,4.00
2022-10-06T16:34:23.597Z,3.97
2022-10-06T16:36:51.751Z,4.03
2022-10-06T16:39:21.086Z,3.80
2022-10-06T16:41:51.897Z,3.80
2022-10-06T16:44:20.050Z,4.25
2022-10-06T16:46:48.221Z,3.60
2022-10-06T16:49:16.483Z,3.95
2022-10-06T16:51:46.853Z,3.88
2022-10-06T16:54:17.186Z,4.15
2022-10-06T16:56:47.268Z,3.92
2022-10-06T16:59:18.652Z,4.20
2022-10-06T17:01:47.601Z,4.00
2022-10-06T17:04:17.872Z,4.07
2022-10-06T17:06:47.757Z,4.03
2022-10-06T17:09:17.646Z,4.20
2022-10-06T17:11:48.138Z,3.92
2022-10-06T17:14:17.894Z,3.95
2022-10-06T17:16:47.976Z,4.05
2022-10-06T17:19:17.633Z,4.13
2022-10-06T17:21:47.667Z,4.50
2022-10-06T17:24:18.158Z,4.00
2022-10-06T17:26:48.228Z,4.78
2022-10-06T17:29:19.418Z,4.40
2022-10-06T17:31:48.834Z,4.35
2022-10-06T17:34:21.150Z,4.70
2022-10-06T17:36:51.801Z,4.80
2022-10-06T17:39:21.480Z,4.35
2022-10-06T17:41:51.909Z,4.20
2022-10-06T17:44:24.222Z,4.47
2022-10-06T17:46:55.150Z,4.40
2022-10-06T17:49:24.937Z,4.30
2022-10-06T17:51:54.539Z,4.30
2022-10-06T17:54:24.841Z,4.25
2022-10-06T17:56:54.903Z,4.63
2022-10-06T17:59:28.496Z,4.80
2022-10-06T18:01:58.525Z,4.60
2022-10-06T18:04:27.572Z,4.65
2022-10-06T18:06:57.061Z,4.75
2022-10-06T18:09:25.707Z,4.68
2022-10-06T18:11:56.723Z,4.50
2022-10-06T18:14:28.097Z,4.20
2022-10-06T18:16:58.457Z,5.22
2022-10-06T18:19:30.444Z,6.10
2022-10-06T18:22:00.479Z,5.80
2022-10-06T18:24:31.045Z,6.30
2022-10-06T18:27:01.277Z,9.05
2022-10-06T18:29:32.869Z,8.77
2022-10-06T18:32:38.574Z,9.10
2022-10-06T18:37:38.783Z,9.50
2022-10-06T18:40:10.132Z,8.60
2022-10-06T18:42:39.256Z,8.82
2022-10-06T18:45:29.488Z,9.38
2022-10-06T18:48:15.074Z,8.07
2022-10-06T18:50:44.390Z,8.40
2022-10-06T18:53:12.689Z,9.15
2022-10-06T18:55:40.866Z,9.18
2022-10-06T18:58:09.523Z,9.88
2022-10-06T19:00:39.471Z,10.27
2022-10-06T19:03:08.088Z,12.48
2022-10-06T19:05:36.310Z,12.13
2022-10-06T19:08:04.575Z,11.50
2022-10-06T19:10:34.898Z,10.45
2022-10-06T19:13:03.115Z,10.70
2022-10-06T19:15:31.249Z,11.57
2022-10-06T19:18:00.817Z,11.52
2022-10-06T19:20:29.033Z,12.18
2022-10-06T19:23:05.354Z,11.20
2022-10-06T19:25:33.528Z,14.27
2022-10-06T19:28:01.786Z,16.15
2022-10-06T19:30:30.020Z,16.17
2022-10-06T19:32:58.192Z,17.92
2022-10-06T19:35:27.735Z,18.92
2022-10-06T19:37:55.935Z,18.35
2022-10-06T19:40:24.924Z,17.38
2022-10-06T19:42:52.130Z,18.52
2022-10-06T19:45:21.116Z,20.30
2022-10-06T19:47:50.087Z,20.08
2022-10-06T19:50:18.303Z,21.13
2022-10-06T19:52:47.821Z,21.75
2022-10-06T19:55:16.123Z,24.55
2022-10-06T19:57:44.497Z,22.83
2022-10-06T20:00:13.818Z,23.60
2022-10-06T20:02:43.793Z,24.35
2022-10-06T20:05:12.940Z,25.27
2022-10-06T20:07:41.956Z,25.30
2022-10-06T20:10:12.370Z,24.58
2022-10-06T20:12:41.477Z,24.17
2022-10-06T20:15:11.043Z,26.13
2022-10-06T20:17:41.891Z,27.30
2022-10-06T20:20:10.958Z,26.15
2022-10-06T20:22:39.114Z,24.38
2022-10-06T20:25:07.707Z,25.85
2022-10-06T20:27:37.480Z,28.02
2022-10-06T20:30:06.519Z,28.65
2022-10-06T20:32:35.534Z,27.15
2022-10-06T20:35:04.868Z,25.63
2022-10-06T20:37:33.022Z,26.75
2022-10-06T20:40:18.569Z,26.70
2022-10-06T20:42:49.534Z,26.83
2022-10-06T20:45:18.261Z,26.17
2022-10-06T20:47:48.083Z,28.83
2022-10-06T20:50:16.423Z,27.75
2022-10-06T20:52:44.543Z,28.15
2022-10-06T20:55:13.488Z,29.42
2022-10-06T20:57:42.535Z,28.35
2022-10-06T21:00:14.383Z,27.95
2022-10-06T21:02:42.668Z,29.13
2022-10-06T21:05:11.128Z,29.38
2022-10-06T21:07:39.450Z,28.70
2022-10-06T21:10:08.906Z,30.02
2022-10-06T21:12:37.046Z,29.60
2022-10-06T21:15:05.811Z,31.67
2022-10-06T21:17:35.350Z,33.58
2022-10-06T21:20:03.517Z,33.90
2022-10-06T21:22:32.447Z,35.88
2022-10-06T21:25:00.669Z,35.78
2022-10-06T21:27:29.649Z,33.50
2022-10-06T21:29:57.857Z,32.85
2022-10-06T21:32:26.433Z,33.25
2022-10-06T21:34:56.517Z,31.42
2022-10-06T21:37:24.741Z,32.67
2022-10-06T21:39:52.937Z,33.28
2022-10-06T21:42:21.124Z,30.88
2022-10-06T21:44:49.473Z,30.13
2022-10-06T21:47:17.687Z,30.05
2022-10-06T21:49:45.929Z,28.92
2022-10-06T21:52:15.662Z,27.50
2022-10-06T21:54:43.849Z,25.58
2022-10-06T21:57:15.352Z,23.80
2022-10-06T21:59:43.545Z,22.88
2022-10-06T22:02:11.752Z,21.95
2022-10-06T22:04:40.421Z,21.67
2022-10-06T22:07:08.615Z,20.95
2022-10-06T22:09:38.129Z,20.95
2022-10-06T22:12:06.368Z,20.38
2022-10-06T22:14:34.570Z,21.00
2022-10-06T22:17:04.870Z,19.92
2022-10-06T22:19:33.134Z,18.75
2022-10-06T22:22:01.290Z,19.40
2022-10-06T22:24:29.910Z,19.55
2022-10-06T22:26:59.848Z,19.17
2022-10-06T22:29:28.167Z,18.10
2022-10-06T22:31:58.543Z,16.88
2022-10-06T22:34:27.408Z,16.88
2022-10-06T22:36:55.568Z,15.60
2022-10-06T22:39:23.699Z,15.67
2022-10-06T22:41:51.798Z,15.18
2022-10-06T22:44:21.343Z,14.55
2022-10-06T22:46:49.632Z,13.23
2022-10-06T22:49:17.858Z,12.77
2022-10-06T22:51:46.048Z,12.25
2022-10-06T22:54:18.785Z,12.18
2022-10-06T22:56:47.504Z,11.25
2022-10-06T22:59:15.636Z,11.23
2022-10-06T23:01:45.161Z,10.70
2022-10-06T23:04:13.332Z,10.63
2022-10-06T23:06:41.468Z,10.45
2022-10-06T23:09:09.617Z,10.30
2022-10-06T23:11:37.937Z,10.83
2022-10-06T23:14:06.062Z,10.68
2022-10-06T23:16:34.240Z,10.23
2022-10-06T23:19:03.840Z,9.67
2022-10-06T23:21:32.345Z,9.63
2022-10-06T23:24:02.049Z,9.60
2022-10-06T23:26:30.354Z,9.68
2022-10-06T23:29:00.376Z,9.17
2022-10-06T23:31:29.794Z,9.03
2022-10-06T23:33:58.160Z,8.77
2022-10-06T23:36:27.696Z,8.97
2022-10-06T23:38:55.959Z,8.23
2022-10-06T23:41:24.149Z,8.50
2022-10-06T23:43:52.441Z,8.70
2022-10-06T23:46:20.731Z,8.43
2022-10-06T23:48:49.114Z,8.33
2022-10-06T23:51:18.005Z,8.20
2022-10-06T23:53:47.762Z,7.40
2022-10-06T23:56:15.966Z,7.90
2022-10-06T23:58:44.148Z,8.02
